sensor_id;sensor_type;location;lat;lon;timestamp;temperature;humidity
20141;DHT22;10231;47.702;9.826;2023-09-08T00:01:52;18.50;99.90
20141;DHT22;10231;47.702;9.826;2023-09-08T00:04:17;18.50;99.90
20141;DHT22;10231;47.702;9.826;2023-09-08T00:06:44;18.40;99.90
20141;DHT22;10231;47.702;9.826;2023-09-08T00:09:11;18.40;99.90
20141;DHT22;10231;47.702;9.826;2023-09-08T00:11:36;18.30;99.90
20141;DHT22;10231;47.702;9.826;2023-09-08T00:14:02;18.40;99.90
20141;DHT22;10231;47.702;9.826;2023-09-08T00:16:29;18.40;99.90
20141;DHT22;10231;47.702;9.826;2023-09-08T00:18:55;18.40;99.90
20141;DHT22;10231;47.702;9.826;2023-09-08T00:21:20;18.50;99.90
20141;DHT22;10231;47.702;9.826;2023-09-08T00:23:46;18.40;99.90
20141;DHT22;10231;47.702;9.826;2023-09-08T00:26:11;18.40;99.90
20141;DHT22;10231;47.702;9.826;2023-09-08T00:28:37;18.30;99.90
20141;DHT22;10231;47.702;9.826;2023-09-08T00:31:02;18.30;99.90
20141;DHT22;10231;47.702;9.826;2023-09-08T00:33:28;18.30;99.90
20141;DHT22;10231;47.702;9.826;2023-09-08T00:35:53;18.30;99.90
20141;DHT22;10231;47.702;9.826;2023-09-08T00:38:22;18.20;99.90
20141;DHT22;10231;47.702;9.826;2023-09-08T00:40:47;18.20;99.90
20141;DHT22;10231;47.702;9.826;2023-09-08T00:43:13;18.20;99.90
20141;DHT22;10231;47.702;9.826;2023-09-08T00:45:42;18.30;99.90
20141;DHT22;10231;47.702;9.826;2023-09-08T00:48:08;18.20;99.90
20141;DHT22;10231;47.702;9.826;2023-09-08T00:50:35;18.30;99.90
20141;DHT22;10231;47.702;9.826;2023-09-08T00:53:05;18.10;99.90
20141;DHT22;10231;47.702;9.826;2023-09-08T00:55:31;18.20;99.90
20141;DHT22;10231;47.702;9.826;2023-09-08T00:57:58;18.10;99.90
20141;DHT22;10231;47.702;9.826;2023-09-08T01:00:25;18.10;99.90
20141;DHT22;10231;47.702;9.826;2023-09-08T01:02:50;18.00;99.90
20141;DHT22;10231;47.702;9.826;2023-09-08T01:05:16;18.00;99.90
20141;DHT22;10231;47.702;9.826;2023-09-08T01:07:42;18.10;99.90
20141;DHT22;10231;47.702;9.826;2023-09-08T01:10:09;18.00;99.90
20141;DHT22;10231;47.702;9.826;2023-09-08T01:12:35;18.00;99.90
20141;DHT22;10231;47.702;9.826;2023-09-08T01:15:04;17.90;99.90
20141;DHT22;10231;47.702;9.826;2023-09-08T01:17:30;17.90;99.90
20141;DHT22;10231;47.702;9.826;2023-09-08T01:19:57;17.90;99.90
20141;DHT22;10231;47.702;9.826;2023-09-08T01:25:23;18.00;99.90
20141;DHT22;10231;47.702;9.826;2023-09-08T01:27:52;17.90;99.90
20141;DHT22;10231;47.702;9.826;2023-09-08T01:30:18;17.90;99.90
20141;DHT22;10231;47.702;9.826;2023-09-08T01:32:44;17.90;99.90
20141;DHT22;10231;47.702;9.826;2023-09-08T01:35:10;17.80;99.90
20141;DHT22;10231;47.702;9.826;2023-09-08T01:37:39;17.80;99.90
20141;DHT22;10231;47.702;9.826;2023-09-08T01:40:06;17.80;99.90
20141;DHT22;10231;47.702;9.826;2023-09-08T01:42:31;17.80;99.90
20141;DHT22;10231;47.702;9.826;2023-09-08T01:44:57;17.80;99.90
20141;DHT22;10231;47.702;9.826;2023-09-08T01:47:23;17.70;99.90
20141;DHT22;10231;47.702;9.826;2023-09-08T01:49:48;17.70;99.90
20141;DHT22;10231;47.702;9.826;2023-09-08T01:52:14;17.70;99.90
20141;DHT22;10231;47.702;9.826;2023-09-08T01:54:39;17.70;99.90
20141;DHT22;10231;47.702;9.826;2023-09-08T01:57:05;17.60;99.90
20141;DHT22;10231;47.702;9.826;2023-09-08T01:59:30;17.50;99.90
20141;DHT22;10231;47.702;9.826;2023-09-08T02:01:56;17.40;99.90
20141;DHT22;10231;47.702;9.826;2023-09-08T02:04:21;17.40;99.90
20141;DHT22;10231;47.702;9.826;2023-09-08T02:06:47;17.40;99.90
20141;DHT22;10231;47.702;9.826;2023-09-08T02:09:14;17.40;99.90
20141;DHT22;10231;47.702;9.826;2023-09-08T02:11:40;17.40;99.90
20141;DHT22;10231;47.702;9.826;2023-09-08T02:14:07;17.50;99.90
20141;DHT22;10231;47.702;9.826;2023-09-08T02:16:32;17.50;99.90
20141;DHT22;10231;47.702;9.826;2023-09-08T02:18:58;17.40;99.90
20141;DHT22;10231;47.702;9.826;2023-09-08T02:21:24;17.40;99.90
20141;DHT22;10231;47.702;9.826;2023-09-08T02:23:50;17.40;99.90
20141;DHT22;10231;47.702;9.826;2023-09-08T02:26:15;17.50;99.90
20141;DHT22;10231;47.702;9.826;2023-09-08T02:28:41;17.50;99.90
20141;DHT22;10231;47.702;9.826;2023-09-08T02:31:06;17.40;99.90
20141;DHT22;10231;47.702;9.826;2023-09-08T02:33:32;17.40;99.90
20141;DHT22;10231;47.702;9.826;2023-09-08T02:36:05;17.30;99.90
20141;DHT22;10231;47.702;9.826;2023-09-08T02:38:32;17.40;99.90
20141;DHT22;10231;47.702;9.826;2023-09-08T02:40:57;17.30;99.90
20141;DHT22;10231;47.702;9.826;2023-09-08T02:43:23;17.30;99.90
20141;DHT22;10231;47.702;9.826;2023-09-08T02:45:49;17.30;99.90
20141;DHT22;10231;47.702;9.826;2023-09-08T02:48:15;17.30;99.90
20141;DHT22;10231;47.702;9.826;2023-09-08T02:50:42;17.40;99.90
20141;DHT22;10231;47.702;9.826;2023-09-08T02:53:07;17.40;99.90
20141;DHT22;10231;47.702;9.826;2023-09-08T02:55:33;17.20;99.90
20141;DHT22;10231;47.702;9.826;2023-09-08T02:57:58;17.20;99.90
20141;DHT22;10231;47.702;9.826;2023-09-08T03:00:24;17.00;99.90
20141;DHT22;10231;47.702;9.826;2023-09-08T03:02:50;17.00;99.90
20141;DHT22;10231;47.702;9.826;2023-09-08T03:05:15;17.00;99.90
20141;DHT22;10231;47.702;9.826;2023-09-08T03:07:41;17.00;99.90
20141;DHT22;10231;47.702;9.826;2023-09-08T03:10:07;17.10;99.90
20141;DHT22;10231;47.702;9.826;2023-09-08T03:12:32;17.10;99.90
20141;DHT22;10231;47.702;9.826;2023-09-08T03:14:58;17.10;99.90
20141;DHT22;10231;47.702;9.826;2023-09-08T03:17:23;17.00;99.90
20141;DHT22;10231;47.702;9.826;2023-09-08T03:19:49;16.90;99.90
20141;DHT22;10231;47.702;9.826;2023-09-08T03:22:17;16.90;99.90
20141;DHT22;10231;47.702;9.826;2023-09-08T03:24:43;17.00;99.90
20141;DHT22;10231;47.702;9.826;2023-09-08T03:27:08;17.00;99.90
20141;DHT22;10231;47.702;9.826;2023-09-08T03:29:34;17.00;99.90
20141;DHT22;10231;47.702;9.826;2023-09-08T03:32:00;17.00;99.90
20141;DHT22;10231;47.702;9.826;2023-09-08T03:34:25;17.00;99.90
20141;DHT22;10231;47.702;9.826;2023-09-08T03:36:53;17.00;99.90
20141;DHT22;10231;47.702;9.826;2023-09-08T03:39:19;16.90;99.90
20141;DHT22;10231;47.702;9.826;2023-09-08T03:41:45;16.80;99.90
20141;DHT22;10231;47.702;9.826;2023-09-08T03:44:10;16.80;99.90
20141;DHT22;10231;47.702;9.826;2023-09-08T03:46:36;16.80;99.90
20141;DHT22;10231;47.702;9.826;2023-09-08T03:49:02;16.80;99.90
20141;DHT22;10231;47.702;9.826;2023-09-08T03:51:28;16.80;99.90
20141;DHT22;10231;47.702;9.826;2023-09-08T03:53:54;16.90;99.90
20141;DHT22;10231;47.702;9.826;2023-09-08T03:56:20;16.80;99.90
20141;DHT22;10231;47.702;9.826;2023-09-08T03:58:48;16.80;99.90
20141;DHT22;10231;47.702;9.826;2023-09-08T04:01:14;16.90;99.90
20141;DHT22;10231;47.702;9.826;2023-09-08T04:03:40;16.90;99.90
20141;DHT22;10231;47.702;9.826;2023-09-08T04:06:05;16.80;99.90
20141;DHT22;10231;47.702;9.826;2023-09-08T04:08:31;16.80;99.90
20141;DHT22;10231;47.702;9.826;2023-09-08T04:10:56;16.80;99.90
20141;DHT22;10231;47.702;9.826;2023-09-08T04:13:22;16.80;99.90
20141;DHT22;10231;47.702;9.826;2023-09-08T04:15:47;16.70;99.90
20141;DHT22;10231;47.702;9.826;2023-09-08T04:18:13;16.70;99.90
20141;DHT22;10231;47.702;9.826;2023-09-08T04:20:39;16.70;99.90
20141;DHT22;10231;47.702;9.826;2023-09-08T04:23:05;16.60;99.90
20141;DHT22;10231;47.702;9.826;2023-09-08T04:25:30;16.60;99.90
20141;DHT22;10231;47.702;9.826;2023-09-08T04:27:56;16.60;99.90
20141;DHT22;10231;47.702;9.826;2023-09-08T04:30:22;16.60;99.90
20141;DHT22;10231;47.702;9.826;2023-09-08T04:32:47;16.50;99.90
20141;DHT22;10231;47.702;9.826;2023-09-08T04:35:13;16.40;99.90
20141;DHT22;10231;47.702;9.826;2023-09-08T04:37:38;16.50;99.90
20141;DHT22;10231;47.702;9.826;2023-09-08T04:40:05;16.30;99.90
20141;DHT22;10231;47.702;9.826;2023-09-08T04:42:32;16.40;99.90
20141;DHT22;10231;47.702;9.826;2023-09-08T04:44:57;16.40;99.90
20141;DHT22;10231;47.702;9.826;2023-09-08T04:47:23;16.40;99.90
20141;DHT22;10231;47.702;9.826;2023-09-08T04:49:48;16.40;99.90
20141;DHT22;10231;47.702;9.826;2023-09-08T04:52:14;16.40;99.90
20141;DHT22;10231;47.702;9.826;2023-09-08T04:54:40;16.40;99.90
20141;DHT22;10231;47.702;9.826;2023-09-08T04:57:05;16.40;99.90
20141;DHT22;10231;47.702;9.826;2023-09-08T04:59:31;16.40;99.90
20141;DHT22;10231;47.702;9.826;2023-09-08T05:01:58;16.40;99.90
20141;DHT22;10231;47.702;9.826;2023-09-08T05:04:23;16.50;99.90
20141;DHT22;10231;47.702;9.826;2023-09-08T05:06:49;16.60;99.90
20141;DHT22;10231;47.702;9.826;2023-09-08T05:09:14;16.50;99.90
20141;DHT22;10231;47.702;9.826;2023-09-08T05:11:40;16.60;99.90
20141;DHT22;10231;47.702;9.826;2023-09-08T05:14:06;16.60;99.90
20141;DHT22;10231;47.702;9.826;2023-09-08T05:16:32;16.60;99.90
20141;DHT22;10231;47.702;9.826;2023-09-08T05:19:10;16.60;99.90
20141;DHT22;10231;47.702;9.826;2023-09-08T05:21:36;16.70;99.90
20141;DHT22;10231;47.702;9.826;2023-09-08T05:24:02;16.70;99.90
20141;DHT22;10231;47.702;9.826;2023-09-08T05:26:28;16.70;99.90
20141;DHT22;10231;47.702;9.826;2023-09-08T05:28:53;16.80;99.90
20141;DHT22;10231;47.702;9.826;2023-09-08T05:31:19;16.80;99.90
20141;DHT22;10231;47.702;9.826;2023-09-08T05:33:45;16.70;99.90
20141;DHT22;10231;47.702;9.826;2023-09-08T05:36:10;16.70;99.90
20141;DHT22;10231;47.702;9.826;2023-09-08T05:38:36;16.70;99.90
20141;DHT22;10231;47.702;9.826;2023-09-08T05:41:01;16.60;99.90
20141;DHT22;10231;47.702;9.826;2023-09-08T05:43:28;16.60;99.90
20141;DHT22;10231;47.702;9.826;2023-09-08T05:45:53;16.60;99.90
20141;DHT22;10231;47.702;9.826;2023-09-08T05:48:19;16.60;99.90
20141;DHT22;10231;47.702;9.826;2023-09-08T05:50:44;16.60;99.90
20141;DHT22;10231;47.702;9.826;2023-09-08T05:53:10;16.70;99.90
20141;DHT22;10231;47.702;9.826;2023-09-08T05:55:36;16.70;99.90
20141;DHT22;10231;47.702;9.826;2023-09-08T05:58:01;16.80;99.90
20141;DHT22;10231;47.702;9.826;2023-09-08T06:00:27;16.90;99.90
20141;DHT22;10231;47.702;9.826;2023-09-08T06:02:53;17.00;99.90
20141;DHT22;10231;47.702;9.826;2023-09-08T06:05:18;17.00;99.90
20141;DHT22;10231;47.702;9.826;2023-09-08T06:07:44;17.00;99.90
20141;DHT22;10231;47.702;9.826;2023-09-08T06:10:10;17.10;99.90
20141;DHT22;10231;47.702;9.826;2023-09-08T06:12:35;17.10;99.90
20141;DHT22;10231;47.702;9.826;2023-09-08T06:15:04;17.10;99.90
20141;DHT22;10231;47.702;9.826;2023-09-08T06:17:30;17.20;99.90
20141;DHT22;10231;47.702;9.826;2023-09-08T06:19:55;17.30;99.90
20141;DHT22;10231;47.702;9.826;2023-09-08T06:22:22;17.30;99.90
20141;DHT22;10231;47.702;9.826;2023-09-08T06:24:47;17.40;99.90
20141;DHT22;10231;47.702;9.826;2023-09-08T06:27:14;17.40;99.90
20141;DHT22;10231;47.702;9.826;2023-09-08T06:29:40;17.40;99.90
20141;DHT22;10231;47.702;9.826;2023-09-08T06:32:09;17.50;99.90
20141;DHT22;10231;47.702;9.826;2023-09-08T06:34:35;17.60;99.90
20141;DHT22;10231;47.702;9.826;2023-09-08T06:37:01;17.60;99.90
20141;DHT22;10231;47.702;9.826;2023-09-08T06:39:27;17.70;99.90
20141;DHT22;10231;47.702;9.826;2023-09-08T06:41:52;17.70;99.90
20141;DHT22;10231;47.702;9.826;2023-09-08T06:44:20;17.80;99.90
20141;DHT22;10231;47.702;9.826;2023-09-08T06:46:46;17.80;99.90
20141;DHT22;10231;47.702;9.826;2023-09-08T06:49:11;17.90;99.90
20141;DHT22;10231;47.702;9.826;2023-09-08T06:51:37;17.90;99.90
20141;DHT22;10231;47.702;9.826;2023-09-08T06:54:04;18.00;99.90
20141;DHT22;10231;47.702;9.826;2023-09-08T06:56:30;18.10;99.90
20141;DHT22;10231;47.702;9.826;2023-09-08T06:58:55;18.10;99.90
20141;DHT22;10231;47.702;9.826;2023-09-08T07:01:23;18.20;99.90
20141;DHT22;10231;47.702;9.826;2023-09-08T07:03:49;18.30;99.90
20141;DHT22;10231;47.702;9.826;2023-09-08T07:06:15;18.30;99.90
20141;DHT22;10231;47.702;9.826;2023-09-08T07:08:40;18.40;99.90
20141;DHT22;10231;47.702;9.826;2023-09-08T07:11:06;18.50;99.90
20141;DHT22;10231;47.702;9.826;2023-09-08T07:13:32;18.50;99.90
20141;DHT22;10231;47.702;9.826;2023-09-08T07:15:57;18.60;99.90
20141;DHT22;10231;47.702;9.826;2023-09-08T07:18:23;18.70;99.90
20141;DHT22;10231;47.702;9.826;2023-09-08T07:20:48;18.80;99.90
20141;DHT22;10231;47.702;9.826;2023-09-08T07:23:16;18.80;99.90
20141;DHT22;10231;47.702;9.826;2023-09-08T07:25:48;18.90;99.90
20141;DHT22;10231;47.702;9.826;2023-09-08T07:28:14;19.00;99.90
20141;DHT22;10231;47.702;9.826;2023-09-08T07:30:40;19.00;99.90
20141;DHT22;10231;47.702;9.826;2023-09-08T07:33:06;19.10;99.90
20141;DHT22;10231;47.702;9.826;2023-09-08T07:35:31;19.20;99.90
20141;DHT22;10231;47.702;9.826;2023-09-08T07:37:57;19.30;99.90
20141;DHT22;10231;47.702;9.826;2023-09-08T07:40:23;19.30;99.90
20141;DHT22;10231;47.702;9.826;2023-09-08T07:42:48;19.40;99.90
20141;DHT22;10231;47.702;9.826;2023-09-08T07:45:14;19.40;99.90
20141;DHT22;10231;47.702;9.826;2023-09-08T07:47:39;19.40;99.90
20141;DHT22;10231;47.702;9.826;2023-09-08T07:50:22;19.50;99.90
20141;DHT22;10231;47.702;9.826;2023-09-08T07:52:48;19.50;99.90
20141;DHT22;10231;47.702;9.826;2023-09-08T07:55:14;19.60;99.90
20141;DHT22;10231;47.702;9.826;2023-09-08T07:57:42;19.60;99.90
20141;DHT22;10231;47.702;9.826;2023-09-08T08:00:08;19.80;99.90
20141;DHT22;10231;47.702;9.826;2023-09-08T08:02:36;19.80;99.90
20141;DHT22;10231;47.702;9.826;2023-09-08T08:05:02;19.90;99.90
20141;DHT22;10231;47.702;9.826;2023-09-08T08:07:28;19.90;99.90
20141;DHT22;10231;47.702;9.826;2023-09-08T08:09:55;20.00;99.90
20141;DHT22;10231;47.702;9.826;2023-09-08T08:12:20;20.00;99.90
20141;DHT22;10231;47.702;9.826;2023-09-08T08:14:46;20.10;99.90
20141;DHT22;10231;47.702;9.826;2023-09-08T08:17:11;20.20;99.90
20141;DHT22;10231;47.702;9.826;2023-09-08T08:19:38;20.20;99.90
20141;DHT22;10231;47.702;9.826;2023-09-08T08:22:03;20.30;99.90
20141;DHT22;10231;47.702;9.826;2023-09-08T08:24:29;20.30;99.90
20141;DHT22;10231;47.702;9.826;2023-09-08T08:26:54;20.40;99.90
20141;DHT22;10231;47.702;9.826;2023-09-08T08:29:20;20.40;99.90
20141;DHT22;10231;47.702;9.826;2023-09-08T08:31:45;20.40;99.90
20141;DHT22;10231;47.702;9.826;2023-09-08T08:34:11;20.50;99.90
20141;DHT22;10231;47.702;9.826;2023-09-08T08:36:36;20.50;99.90
20141;DHT22;10231;47.702;9.826;2023-09-08T08:39:02;20.60;99.90
20141;DHT22;10231;47.702;9.826;2023-09-08T08:41:29;20.60;99.90
20141;DHT22;10231;47.702;9.826;2023-09-08T08:43:55;20.80;99.90
20141;DHT22;10231;47.702;9.826;2023-09-08T08:46:22;20.90;99.90
20141;DHT22;10231;47.702;9.826;2023-09-08T08:48:48;21.00;99.90
20141;DHT22;10231;47.702;9.826;2023-09-08T08:51:17;21.00;99.90
20141;DHT22;10231;47.702;9.826;2023-09-08T08:53:43;21.00;99.90
20141;DHT22;10231;47.702;9.826;2023-09-08T08:56:09;21.10;99.90
20141;DHT22;10231;47.702;9.826;2023-09-08T08:58:39;21.10;99.90
20141;DHT22;10231;47.702;9.826;2023-09-08T09:01:06;21.10;99.90
20141;DHT22;10231;47.702;9.826;2023-09-08T09:03:33;21.20;99.90
20141;DHT22;10231;47.702;9.826;2023-09-08T09:06:00;21.20;99.90
20141;DHT22;10231;47.702;9.826;2023-09-08T09:08:27;21.30;99.90
20141;DHT22;10231;47.702;9.826;2023-09-08T09:10:53;21.30;99.90
20141;DHT22;10231;47.702;9.826;2023-09-08T09:13:19;21.30;99.90
20141;DHT22;10231;47.702;9.826;2023-09-08T09:15:44;21.40;99.90
20141;DHT22;10231;47.702;9.826;2023-09-08T09:18:12;21.40;99.90
20141;DHT22;10231;47.702;9.826;2023-09-08T09:20:37;21.40;99.90
20141;DHT22;10231;47.702;9.826;2023-09-08T09:23:03;21.40;99.90
20141;DHT22;10231;47.702;9.826;2023-09-08T09:25:30;21.50;99.90
20141;DHT22;10231;47.702;9.826;2023-09-08T09:28:01;21.60;99.90
20141;DHT22;10231;47.702;9.826;2023-09-08T09:30:28;21.60;99.90
20141;DHT22;10231;47.702;9.826;2023-09-08T09:33:03;21.70;99.90
20141;DHT22;10231;47.702;9.826;2023-09-08T09:35:46;21.80;99.90
20141;DHT22;10231;47.702;9.826;2023-09-08T09:38:12;21.80;99.90
20141;DHT22;10231;47.702;9.826;2023-09-08T09:40:39;21.90;99.90
20141;DHT22;10231;47.702;9.826;2023-09-08T09:43:06;21.90;99.90
20141;DHT22;10231;47.702;9.826;2023-09-08T09:45:34;22.00;99.90
20141;DHT22;10231;47.702;9.826;2023-09-08T09:48:00;22.10;99.90
20141;DHT22;10231;47.702;9.826;2023-09-08T09:50:32;22.10;99.90
20141;DHT22;10231;47.702;9.826;2023-09-08T09:52:59;22.10;99.90
20141;DHT22;10231;47.702;9.826;2023-09-08T09:55:26;22.20;99.90
20141;DHT22;10231;47.702;9.826;2023-09-08T09:57:56;22.20;99.90
20141;DHT22;10231;47.702;9.826;2023-09-08T10:00:26;22.30;99.90
20141;DHT22;10231;47.702;9.826;2023-09-08T10:02:56;22.40;99.90
20141;DHT22;10231;47.702;9.826;2023-09-08T10:05:23;22.40;99.90
20141;DHT22;10231;47.702;9.826;2023-09-08T10:07:50;22.50;99.90
20141;DHT22;10231;47.702;9.826;2023-09-08T10:10:17;22.50;99.90
20141;DHT22;10231;47.702;9.826;2023-09-08T10:12:44;22.60;99.90
20141;DHT22;10231;47.702;9.826;2023-09-08T10:15:11;22.60;99.90
20141;DHT22;10231;47.702;9.826;2023-09-08T10:17:40;22.60;99.90
20141;DHT22;10231;47.702;9.826;2023-09-08T10:20:07;22.60;99.90
20141;DHT22;10231;47.702;9.826;2023-09-08T10:22:38;22.60;99.90
20141;DHT22;10231;47.702;9.826;2023-09-08T10:25:06;22.60;99.90
20141;DHT22;10231;47.702;9.826;2023-09-08T10:27:33;22.60;99.90
20141;DHT22;10231;47.702;9.826;2023-09-08T10:30:00;22.80;99.90
20141;DHT22;10231;47.702;9.826;2023-09-08T10:32:26;22.90;99.90
20141;DHT22;10231;47.702;9.826;2023-09-08T10:34:52;23.00;99.90
20141;DHT22;10231;47.702;9.826;2023-09-08T10:37:24;23.00;99.90
20141;DHT22;10231;47.702;9.826;2023-09-08T10:39:56;23.00;99.90
20141;DHT22;10231;47.702;9.826;2023-09-08T10:42:41;23.10;99.90
20141;DHT22;10231;47.702;9.826;2023-09-08T10:45:18;23.10;99.90
20141;DHT22;10231;47.702;9.826;2023-09-08T10:50:20;23.10;99.90
20141;DHT22;10231;47.702;9.826;2023-09-08T10:53:12;23.20;99.90
20141;DHT22;10231;47.702;9.826;2023-09-08T10:55:48;23.20;99.90
20141;DHT22;10231;47.702;9.826;2023-09-08T10:58:32;23.30;99.90
20141;DHT22;10231;47.702;9.826;2023-09-08T11:01:13;23.30;99.90
20141;DHT22;10231;47.702;9.826;2023-09-08T11:06:06;23.40;99.90
20141;DHT22;10231;47.702;9.826;2023-09-08T11:08:37;23.50;99.90
20141;DHT22;10231;47.702;9.826;2023-09-08T11:11:03;23.40;99.90
20141;DHT22;10231;47.702;9.826;2023-09-08T11:13:29;23.40;99.90
20141;DHT22;10231;47.702;9.826;2023-09-08T11:15:55;23.50;99.90
20141;DHT22;10231;47.702;9.826;2023-09-08T11:18:30;23.60;99.90
20141;DHT22;10231;47.702;9.826;2023-09-08T11:20:57;23.70;99.90
20141;DHT22;10231;47.702;9.826;2023-09-08T11:23:23;23.90;99.90
20141;DHT22;10231;47.702;9.826;2023-09-08T11:25:50;23.90;99.90
20141;DHT22;10231;47.702;9.826;2023-09-08T11:28:17;23.90;99.90
20141;DHT22;10231;47.702;9.826;2023-09-08T11:30:45;23.90;99.90
20141;DHT22;10231;47.702;9.826;2023-09-08T11:33:19;23.90;99.90
20141;DHT22;10231;47.702;9.826;2023-09-08T11:35:48;23.90;99.90
20141;DHT22;10231;47.702;9.826;2023-09-08T11:38:14;23.90;99.90
20141;DHT22;10231;47.702;9.826;2023-09-08T11:40:40;23.90;99.90
20141;DHT22;10231;47.702;9.826;2023-09-08T11:43:06;23.90;99.90
20141;DHT22;10231;47.702;9.826;2023-09-08T11:45:36;23.90;99.90
20141;DHT22;10231;47.702;9.826;2023-09-08T11:48:02;24.00;99.90
20141;DHT22;10231;47.702;9.826;2023-09-08T11:50:30;24.10;99.90
20141;DHT22;10231;47.702;9.826;2023-09-08T11:52:56;24.20;99.90
20141;DHT22;10231;47.702;9.826;2023-09-08T11:55:24;24.20;99.90
20141;DHT22;10231;47.702;9.826;2023-09-08T11:57:52;24.20;99.90
20141;DHT22;10231;47.702;9.826;2023-09-08T12:00:20;24.20;99.90
20141;DHT22;10231;47.702;9.826;2023-09-08T12:02:48;24.10;99.90
20141;DHT22;10231;47.702;9.826;2023-09-08T12:05:24;24.10;99.90
20141;DHT22;10231;47.702;9.826;2023-09-08T12:07:51;24.10;99.90
20141;DHT22;10231;47.702;9.826;2023-09-08T12:10:17;24.10;99.90
20141;DHT22;10231;47.702;9.826;2023-09-08T12:12:53;24.20;99.90
20141;DHT22;10231;47.702;9.826;2023-09-08T12:15:32;24.30;99.90
20141;DHT22;10231;47.702;9.826;2023-09-08T12:17:59;24.40;99.90
20141;DHT22;10231;47.702;9.826;2023-09-08T12:20:25;24.40;99.90
20141;DHT22;10231;47.702;9.826;2023-09-08T12:22:51;24.40;99.90
20141;DHT22;10231;47.702;9.826;2023-09-08T12:25:17;24.40;99.90
20141;DHT22;10231;47.702;9.826;2023-09-08T12:27:45;24.40;99.90
20141;DHT22;10231;47.702;9.826;2023-09-08T12:30:17;24.40;99.90
20141;DHT22;10231;47.702;9.826;2023-09-08T12:32:46;24.50;99.90
20141;DHT22;10231;47.702;9.826;2023-09-08T12:35:12;24.60;99.90
20141;DHT22;10231;47.702;9.826;2023-09-08T12:37:38;24.70;99.90
20141;DHT22;10231;47.702;9.826;2023-09-08T12:40:05;24.80;99.90
20141;DHT22;10231;47.702;9.826;2023-09-08T12:42:30;24.90;99.90
20141;DHT22;10231;47.702;9.826;2023-09-08T12:44:57;24.90;99.90
20141;DHT22;10231;47.702;9.826;2023-09-08T12:47:22;25.00;99.90
20141;DHT22;10231;47.702;9.826;2023-09-08T12:49:48;25.20;99.90
20141;DHT22;10231;47.702;9.826;2023-09-08T12:52:14;25.40;99.90
20141;DHT22;10231;47.702;9.826;2023-09-08T12:54:40;25.40;99.90
20141;DHT22;10231;47.702;9.826;2023-09-08T12:57:05;25.60;99.90
20141;DHT22;10231;47.702;9.826;2023-09-08T12:59:31;25.70;99.90
20141;DHT22;10231;47.702;9.826;2023-09-08T13:01:56;25.80;99.90
20141;DHT22;10231;47.702;9.826;2023-09-08T13:04:23;25.80;99.90
20141;DHT22;10231;47.702;9.826;2023-09-08T13:06:49;25.90;99.90
20141;DHT22;10231;47.702;9.826;2023-09-08T13:09:15;26.00;99.90
20141;DHT22;10231;47.702;9.826;2023-09-08T13:11:42;26.10;99.90
20141;DHT22;10231;47.702;9.826;2023-09-08T13:14:08;26.20;99.90
20141;DHT22;10231;47.702;9.826;2023-09-08T13:16:33;26.30;99.90
20141;DHT22;10231;47.702;9.826;2023-09-08T13:18:59;26.40;99.90
20141;DHT22;10231;47.702;9.826;2023-09-08T13:21:25;26.50;99.90
20141;DHT22;10231;47.702;9.826;2023-09-08T13:23:50;26.60;99.90
20141;DHT22;10231;47.702;9.826;2023-09-08T13:26:16;26.70;99.90
20141;DHT22;10231;47.702;9.826;2023-09-08T13:28:42;26.90;99.90
20141;DHT22;10231;47.702;9.826;2023-09-08T13:31:08;26.90;99.90
20141;DHT22;10231;47.702;9.826;2023-09-08T13:33:33;27.10;99.90
20141;DHT22;10231;47.702;9.826;2023-09-08T13:35:59;27.10;99.90
20141;DHT22;10231;47.702;9.826;2023-09-08T13:38:25;27.30;99.90
20141;DHT22;10231;47.702;9.826;2023-09-08T13:40:50;27.40;99.90
20141;DHT22;10231;47.702;9.826;2023-09-08T13:43:16;27.40;99.90
20141;DHT22;10231;47.702;9.826;2023-09-08T13:45:41;27.50;99.90
20141;DHT22;10231;47.702;9.826;2023-09-08T13:48:08;27.50;99.90
20141;DHT22;10231;47.702;9.826;2023-09-08T13:50:34;27.60;99.90
20141;DHT22;10231;47.702;9.826;2023-09-08T13:52:59;27.70;99.90
20141;DHT22;10231;47.702;9.826;2023-09-08T13:55:25;27.90;99.90
20141;DHT22;10231;47.702;9.826;2023-09-08T13:57:50;28.00;99.90
20141;DHT22;10231;47.702;9.826;2023-09-08T14:00:17;28.10;99.90
20141;DHT22;10231;47.702;9.826;2023-09-08T14:02:43;28.20;99.90
20141;DHT22;10231;47.702;9.826;2023-09-08T14:05:09;28.30;99.90
20141;DHT22;10231;47.702;9.826;2023-09-08T14:07:35;28.10;99.90
20141;DHT22;10231;47.702;9.826;2023-09-08T14:10:00;28.20;99.90
20141;DHT22;10231;47.702;9.826;2023-09-08T14:12:27;28.30;99.90
20141;DHT22;10231;47.702;9.826;2023-09-08T14:14:53;28.50;99.90
20141;DHT22;10231;47.702;9.826;2023-09-08T14:17:19;28.70;99.90
20141;DHT22;10231;47.702;9.826;2023-09-08T14:19:44;28.80;99.90
20141;DHT22;10231;47.702;9.826;2023-09-08T14:22:10;28.90;99.90
20141;DHT22;10231;47.702;9.826;2023-09-08T14:24:36;29.00;99.90
20141;DHT22;10231;47.702;9.826;2023-09-08T14:27:01;29.10;99.90
20141;DHT22;10231;47.702;9.826;2023-09-08T14:29:27;29.20;99.90
20141;DHT22;10231;47.702;9.826;2023-09-08T14:31:52;29.40;99.90
20141;DHT22;10231;47.702;9.826;2023-09-08T14:34:18;29.60;99.90
20141;DHT22;10231;47.702;9.826;2023-09-08T14:36:44;29.90;99.90
20141;DHT22;10231;47.702;9.826;2023-09-08T14:39:09;30.00;99.90
20141;DHT22;10231;47.702;9.826;2023-09-08T14:41:35;30.00;99.90
20141;DHT22;10231;47.702;9.826;2023-09-08T14:44:00;30.10;99.90
20141;DHT22;10231;47.702;9.826;2023-09-08T14:46:26;30.20;99.90
20141;DHT22;10231;47.702;9.826;2023-09-08T14:48:51;30.30;99.90
20141;DHT22;10231;47.702;9.826;2023-09-08T14:51:17;30.40;99.90
20141;DHT22;10231;47.702;9.826;2023-09-08T14:53:42;30.60;99.90
20141;DHT22;10231;47.702;9.826;2023-09-08T14:56:08;30.70;99.90
20141;DHT22;10231;47.702;9.826;2023-09-08T14:58:33;30.80;99.90
20141;DHT22;10231;47.702;9.826;2023-09-08T15:01:01;30.90;99.90
20141;DHT22;10231;47.702;9.826;2023-09-08T15:03:30;30.90;99.40
20141;DHT22;10231;47.702;9.826;2023-09-08T15:05:56;30.90;99.40
20141;DHT22;10231;47.702;9.826;2023-09-08T15:08:21;30.90;99.20
20141;DHT22;10231;47.702;9.826;2023-09-08T15:10:47;31.00;99.90
20141;DHT22;10231;47.702;9.826;2023-09-08T15:13:13;31.20;99.50
20141;DHT22;10231;47.702;9.826;2023-09-08T15:15:38;31.30;99.00
20141;DHT22;10231;47.702;9.826;2023-09-08T15:18:04;31.60;97.90
20141;DHT22;10231;47.702;9.826;2023-09-08T15:20:29;31.80;97.70
20141;DHT22;10231;47.702;9.826;2023-09-08T15:22:55;31.80;98.00
20141;DHT22;10231;47.702;9.826;2023-09-08T15:25:21;32.10;97.10
20141;DHT22;10231;47.702;9.826;2023-09-08T15:27:47;32.10;96.30
20141;DHT22;10231;47.702;9.826;2023-09-08T15:30:13;32.20;97.40
20141;DHT22;10231;47.702;9.826;2023-09-08T15:32:39;32.40;96.90
20141;DHT22;10231;47.702;9.826;2023-09-08T15:35:06;32.40;97.00